Stations météo

Publicité
Chamonix, France (7469): Température de l'air & dewpoint: 13.04.2019 02:00:00 - 19.04.2019 02:00:00 (CEST)Chamonix, France (7469): Vitesse du vent & gusts: 13.04.2019 02:00:00 - 19.04.2019 02:00:00 (CEST)Chamonix, France (7469): Direction du vent: 13.04.2019 02:00:00 - 19.04.2019 02:00:00 (CEST)Chamonix, France (7469): Quantités de précipitations: 13.04.2019 02:00:00 - 19.04.2019 02:00:00 (CEST)
Date & Time tt [°C] td [°C] ff [km/h] ff [knt] fx [km/h] fx [knt] dd rr [mm]
19.04.2019 02:00:00 - - - - - - - -
19.04.2019 01:00:00 11,6 -0,3 8 4 37 20 NNE 0,0
19.04.2019 00:00:00 12,1 -0,4 8 4 35 19 NNE 0,0
18.04.2019 23:00:00 12,6 -0,3 9 5 34 18 N 0,0
18.04.2019 22:00:00 13,3 -0,4 8 4 22 12 NNE 0,0
18.04.2019 21:00:00 13,5 -0,2 4 2 16 9 N 0,0
18.04.2019 20:00:00 13,9 -0,2 2 1 11 6 NNE -
18.04.2019 19:00:00 16,2 -1,0 5 3 16 9 NE 0,0
18.04.2019 18:00:00 17,9 -1,4 4 2 24 13 NE 0,0
18.04.2019 17:00:00 20,1 -0,6 8 4 21 11 NNE 0,0
18.04.2019 16:00:00 19,3 -2,4 9 5 22 12 NNE 0,0
18.04.2019 15:00:00 19,0 -1,5 9 5 21 11 N 0,0
18.04.2019 14:00:00 18,9 -1,6 8 4 24 13 N -
18.04.2019 13:00:00 17,5 -0,7 8 4 29 16 NNE 0,0
18.04.2019 12:00:00 16,4 -1,2 9 5 26 14 NE 0,0
18.04.2019 11:00:00 14,8 -0,9 9 5 35 19 NE 0,0
18.04.2019 10:00:00 12,7 -0,9 9 5 41 22 NE 0,0
18.04.2019 09:00:00 10,9 -1,5 9 5 35 19 NNE 0,0
18.04.2019 08:00:00 10,2 -0,9 8 4 37 20 N -
18.04.2019 07:00:00 10,6 -0,6 11 6 39 21 NNE 0,0
18.04.2019 06:00:00 10,9 -0,6 13 7 39 21 NE 0,0
18.04.2019 05:00:00 8,5 0,7 5 3 16 9 NNE 0,0
18.04.2019 04:00:00 3,6 1,6 0 0 9 5 N 0,0
18.04.2019 03:00:00 4,6 2,3 2 1 8 4 SSW 0,0
18.04.2019 02:00:00 3,7 2,2 0 0 5 3 N -
18.04.2019 01:00:00 3,6 2,3 0 0 4 2 N 0,0
18.04.2019 00:00:00 3,9 2,1 0 0 4 2 N 0,0
17.04.2019 23:00:00 4,7 2,4 0 0 4 2 N 0,0
17.04.2019 22:00:00 6,1 3,3 0 0 8 4 N 0,0
17.04.2019 21:00:00 8,0 3,6 0 0 4 2 N 0,0
17.04.2019 20:00:00 10,6 3,8 0 0 5 3 N -
17.04.2019 19:00:00 13,1 3,5 4 2 13 7 NNE 0,0
17.04.2019 18:00:00 16,2 2,2 9 5 16 9 NW 0,0
17.04.2019 17:00:00 17,8 1,3 8 4 18 10 SW 0,0
17.04.2019 16:00:00 18,2 -0,1 8 4 18 10 WSW 0,0
17.04.2019 15:00:00 18,3 2,2 8 4 22 12 WSW 0,0
17.04.2019 14:00:00 17,3 1,7 5 3 21 11 SSW -
17.04.2019 13:00:00 16,3 0,4 8 4 15 8 SW 0,0
17.04.2019 12:00:00 14,6 1,1 4 2 11 6 S 0,0
17.04.2019 11:00:00 11,6 2,9 4 2 9 5 SSE 0,0
17.04.2019 10:00:00 4,7 4,6 0 0 4 2 N 0,0
17.04.2019 09:00:00 1,6 1,2 0 0 4 2 N 0,0
17.04.2019 08:00:00 1,9 1,5 2 1 5 3 E -
17.04.2019 07:00:00 2,8 2,2 0 0 5 3 N 0,0
17.04.2019 06:00:00 3,9 3,3 0 0 4 2 N 0,0
17.04.2019 05:00:00 4,4 4,0 0 0 4 2 N 0,0
17.04.2019 04:00:00 4,5 4,1 0 0 8 4 N 0,0
17.04.2019 03:00:00 4,7 4,3 0 0 4 2 N 0,0
17.04.2019 02:00:00 4,5 3,9 0 0 4 2 N -
17.04.2019 01:00:00 5,0 4,4 0 0 4 2 N 0,0
17.04.2019 00:00:00 5,3 4,6 0 0 4 2 N 0,0
16.04.2019 23:00:00 5,5 4,8 0 0 2 1 N 0,0
16.04.2019 22:00:00 5,8 4,9 0 0 2 1 N 0,0
16.04.2019 21:00:00 6,3 4,9 0 0 8 4 N 0,0
16.04.2019 20:00:00 7,3 4,9 0 0 9 5 N -
16.04.2019 19:00:00 7,7 4,6 2 1 11 6 SSW 0,2
16.04.2019 18:00:00 8,1 5,0 5 3 13 7 SW 0,4
16.04.2019 17:00:00 8,7 4,3 5 3 15 8 WSW 0,0
16.04.2019 16:00:00 9,1 3,7 5 3 18 10 SW 0,2
16.04.2019 15:00:00 10,2 1,6 11 6 24 13 SW 0,0
16.04.2019 14:00:00 12,0 0,4 8 4 22 12 SSW -
16.04.2019 13:00:00 12,0 -2,3 8 4 16 9 SW 0,0
16.04.2019 12:00:00 10,7 -2,0 9 5 16 9 WSW 0,0
16.04.2019 11:00:00 9,4 -0,8 9 5 16 9 WSW 0,0
16.04.2019 10:00:00 8,3 -0,7 2 1 9 5 SSE 0,0
16.04.2019 09:00:00 5,9 -1,3 0 0 15 8 N 0,0
16.04.2019 08:00:00 5,4 -1,8 5 3 15 8 SSW -
16.04.2019 07:00:00 6,8 -3,2 2 1 15 8 SSW 0,0
16.04.2019 06:00:00 7,9 -4,6 8 4 26 14 N 0,0
16.04.2019 05:00:00 7,9 -4,6 9 5 29 16 NNE 0,0
16.04.2019 04:00:00 7,8 -4,7 4 2 29 16 NE 0,0
16.04.2019 03:00:00 6,8 -4,0 4 2 18 10 N 0,0
16.04.2019 02:00:00 3,9 -1,9 2 1 9 5 WNW -
16.04.2019 01:00:00 1,4 -1,8 0 0 5 3 N 0,0
16.04.2019 00:00:00 1,8 -1,6 2 1 5 3 WSW 0,0
15.04.2019 23:00:00 3,0 -1,6 2 1 5 3 E 0,0
15.04.2019 22:00:00 4,1 -1,7 0 0 5 3 N 0,0
15.04.2019 21:00:00 6,4 -2,5 0 0 8 4 N 0,0
15.04.2019 20:00:00 9,6 -2,7 4 2 16 9 E -
15.04.2019 19:00:00 11,7 -4,5 8 4 22 12 NNW 0,0
15.04.2019 18:00:00 14,7 -3,6 15 8 24 13 WNW 0,0
15.04.2019 17:00:00 16,4 -6,6 5 3 16 9 SSW 0,0
15.04.2019 16:00:00 16,4 -4,2 9 5 21 11 SSW 0,0
15.04.2019 15:00:00 14,7 -6,2 5 3 18 10 W 0,0
15.04.2019 14:00:00 14,8 -5,1 4 2 22 12 SE -
15.04.2019 13:00:00 13,5 -4,7 8 4 31 17 NE 0,0
15.04.2019 12:00:00 11,6 -4,1 8 4 26 14 NE 0,0
15.04.2019 11:00:00 9,0 -3,6 4 2 15 8 SSW 0,0
15.04.2019 10:00:00 0,4 -2,6 2 1 9 5 SSE 0,0
15.04.2019 09:00:00 -3,1 -3,9 0 0 5 3 N 0,0
15.04.2019 08:00:00 -3,5 -4,3 2 1 5 3 NE -
15.04.2019 07:00:00 -3,4 -4,4 2 1 9 5 NNE 0,0
15.04.2019 06:00:00 -3,2 -4,3 0 0 9 5 N 0,0
15.04.2019 05:00:00 -3,2 -4,3 2 1 5 3 E 0,0
15.04.2019 04:00:00 -2,7 -4,1 2 1 8 4 NNE 0,0
15.04.2019 03:00:00 -2,4 -4,0 2 1 8 4 NNW 0,0
15.04.2019 02:00:00 -2,2 -4,1 2 1 8 4 NNW -
15.04.2019 01:00:00 -1,4 -3,9 0 0 5 3 N 0,0
15.04.2019 00:00:00 0,6 -3,9 0 0 9 5 N 0,0
14.04.2019 23:00:00 2,4 -3,5 5 3 18 10 NE 0,0
14.04.2019 22:00:00 2,5 -3,6 2 1 15 8 E 0,0
14.04.2019 21:00:00 4,3 -4,0 0 0 18 10 N 0,0
14.04.2019 20:00:00 5,0 -4,6 5 3 22 12 NNE -
14.04.2019 19:00:00 7,0 -6,0 8 4 22 12 S 0,0
14.04.2019 18:00:00 7,4 -6,7 8 4 18 10 W 0,0
14.04.2019 17:00:00 7,4 -7,5 9 5 18 10 W 0,0
14.04.2019 16:00:00 8,7 -7,9 8 4 26 14 SW 0,0
14.04.2019 15:00:00 9,3 -7,0 9 5 29 16 W 0,0
14.04.2019 14:00:00 8,7 -7,5 9 5 22 12 WSW -
14.04.2019 13:00:00 7,7 -6,5 9 5 22 12 WSW 0,0
14.04.2019 12:00:00 6,6 -6,7 8 4 15 8 SW 0,0
14.04.2019 11:00:00 2,9 -3,9 2 1 8 4 S 0,0
14.04.2019 10:00:00 1,1 -4,0 2 1 11 6 SSE 0,0
14.04.2019 09:00:00 0,2 -4,3 4 2 11 6 S 0,0
14.04.2019 08:00:00 0,0 -3,7 5 3 15 8 WSW -
14.04.2019 07:00:00 0,2 -3,4 8 4 22 12 W 0,0
14.04.2019 06:00:00 0,4 -3,0 13 7 21 11 W 0,0
14.04.2019 05:00:00 1,4 -2,7 8 4 24 13 SW 0,0
14.04.2019 04:00:00 2,0 -3,1 8 4 22 12 S 0,0
14.04.2019 03:00:00 2,2 -2,7 9 5 21 11 WSW 0,0
14.04.2019 02:00:00 2,9 -2,4 8 4 16 9 WSW -
14.04.2019 01:00:00 3,7 -2,5 8 4 21 11 SSW 0,0
14.04.2019 00:00:00 4,2 -2,2 4 2 13 7 SSW 0,0
13.04.2019 23:00:00 4,4 -2,3 4 2 21 11 SW 0,0
13.04.2019 22:00:00 5,5 -2,8 8 4 22 12 SSW 0,0
13.04.2019 21:00:00 5,8 -3,3 9 5 26 14 S 0,0
13.04.2019 20:00:00 7,5 -3,1 4 2 26 14 SSW -
13.04.2019 19:00:00 8,5 -3,1 9 5 22 12 WSW 0,0
13.04.2019 18:00:00 9,8 -2,5 11 6 24 13 SSW 0,0
13.04.2019 17:00:00 10,3 -2,4 5 3 31 17 S 0,0
13.04.2019 16:00:00 12,5 -1,5 11 6 29 16 SSW 0,0
13.04.2019 15:00:00 11,7 -2,5 9 5 26 14 S 0,0
13.04.2019 14:00:00 12,7 -3,6 9 5 28 15 S -
13.04.2019 13:00:00 10,6 -2,1 11 6 22 12 SW 0,0
13.04.2019 12:00:00 8,9 -1,5 8 4 16 9 WSW 0,0
13.04.2019 11:00:00 7,1 0,7 5 3 11 6 SE 0,0
13.04.2019 10:00:00 3,3 0,3 4 2 11 6 SSE 0,0
13.04.2019 09:00:00 0,1 -0,2 0 0 4 2 N 0,0
13.04.2019 08:00:00 -1,8 -2,2 0 0 5 3 N -
13.04.2019 07:00:00 -2,6 -3,1 0 0 5 3 N 0,0
13.04.2019 06:00:00 -2,3 -2,9 0 0 8 4 N 0,0
13.04.2019 05:00:00 -2,1 -2,7 0 0 8 4 N 0,0
13.04.2019 04:00:00 -1,8 -2,5 0 0 8 4 N 0,0
13.04.2019 03:00:00 -1,2 -1,9 2 1 5 3 E 0,0
13.04.2019 02:00:00 -0,2 -1,2 4 2 5 3 E -

tt = Température de l'air
td = dewpoint
ff = Vitesse du vent
fx = gusts
dd = Direction du vent
rr = Quantités de précipitations

stations d'obs. à proximité